Time;durP1;ratioP1;P1;durP2;ratioP2;P2;SDS_P1;SDS_P2;PMS_P1;PMS_P2;Temp;Humidity;BMP_temperature;BMP_pressure;BME280_temperature;BME280_humidity;BME280_pressure;Samples;Min_cycle;Max_cycle;Signal;HPM_P1;HPM_P2
2023/03/12 00:01:11;;;;;;;;;;;2.60;99.90;;;;;;5048847;28;19928;-77
2023/03/12 00:03:39;;;;;;;;;;;2.60;99.90;;;;;;5030528;28;19939;-77
2023/03/12 00:06:07;;;;;;;;;;;2.60;99.90;;;;;;5038734;28;20416;-78
2023/03/12 00:08:34;;;;;;;;;;;2.70;99.90;;;;;;5047161;28;19930;-77
2023/03/12 00:11:00;;;;;;;;;;;2.70;99.90;;;;;;5034780;28;20010;-77
2023/03/12 00:13:27;;;;;;;;;;;2.80;99.90;;;;;;5027480;28;19921;-77
2023/03/12 00:15:54;;;;;;;;;;;2.80;99.90;;;;;;5038853;28;19932;-77
2023/03/12 00:18:21;;;;;;;;;;;2.80;99.90;;;;;;5038844;28;19925;-77
2023/03/12 00:20:53;;;;;;;;;;;2.80;99.90;;;;;;5040661;28;20408;-77
2023/03/12 00:23:21;;;;;;;;;;;2.80;99.90;;;;;;5038596;28;19925;-77
2023/03/12 00:25:47;;;;;;;;;;;4.70;99.90;;;;;;5034586;28;20349;-78
2023/03/12 00:28:14;;;;;;;;;;;2.90;99.90;;;;;;5046827;28;19925;-77
2023/03/12 00:30:42;;;;;;;;;;;2.90;99.90;;;;;;5046982;28;19924;-77
2023/03/12 00:33:09;;;;;;;;;;;2.90;99.90;;;;;;5034863;28;20402;-77
2023/03/12 00:35:37;;;;;;;;;;;2.90;99.90;;;;;;5038112;28;19951;-77
2023/03/12 00:38:04;;;;;;;;;;;3.00;99.90;;;;;;5042573;28;20548;-77
2023/03/12 00:40:32;;;;;;;;;;;3.00;99.90;;;;;;5045082;28;19925;-77
2023/03/12 00:42:59;;;;;;;;;;;3.00;99.90;;;;;;5028939;28;19921;-77
2023/03/12 00:45:25;;;;;;;;;;;3.00;99.90;;;;;;5041783;28;19924;-76
2023/03/12 00:47:52;;;;;;;;;;;3.00;99.90;;;;;;5029232;28;19921;-76
2023/03/12 00:50:19;;;;;;;;;;;3.00;99.90;;;;;;5033338;28;19928;-77
2023/03/12 00:52:46;;;;;;;;;;;3.00;99.90;;;;;;5046370;28;19940;-77
2023/03/12 00:55:13;;;;;;;;;;;3.10;99.90;;;;;;5038776;28;19966;-77
2023/03/12 00:57:41;;;;;;;;;;;3.10;99.90;;;;;;5032898;28;19940;-77
2023/03/12 01:00:09;;;;;;;;;;;3.20;99.90;;;;;;5050846;28;19927;-77
2023/03/12 01:02:36;;;;;;;;;;;3.20;99.90;;;;;;5033271;28;19935;-77
2023/03/12 01:05:03;;;;;;;;;;;3.20;99.90;;;;;;5048311;28;19921;-77
2023/03/12 01:07:30;;;;;;;;;;;3.20;99.90;;;;;;5056036;28;19924;-77
2023/03/12 01:09:56;;;;;;;;;;;3.20;99.90;;;;;;5065820;28;19935;-77
2023/03/12 01:12:23;;;;;;;;;;;3.20;99.90;;;;;;5038364;28;19925;-77
2023/03/12 01:14:51;;;;;;;;;;;3.30;99.90;;;;;;5029544;28;19925;-77
2023/03/12 01:17:18;;;;;;;;;;;3.30;99.90;;;;;;5036045;28;20293;-77
2023/03/12 01:19:45;;;;;;;;;;;3.30;99.90;;;;;;5048483;28;20001;-78
2023/03/12 01:22:12;;;;;;;;;;;3.30;99.90;;;;;;5048875;28;19931;-77
2023/03/12 01:24:38;;;;;;;;;;;3.30;99.90;;;;;;5046650;28;20365;-77
2023/03/12 01:27:05;;;;;;;;;;;3.40;99.90;;;;;;5030311;28;19933;-77
2023/03/12 01:29:32;;;;;;;;;;;3.40;99.90;;;;;;5039819;28;19932;-77
2023/03/12 01:32:00;;;;;;;;;;;3.40;99.90;;;;;;5048485;28;19925;-77
2023/03/12 01:34:27;;;;;;;;;;;3.40;99.90;;;;;;5044298;28;19921;-77
2023/03/12 01:36:54;;;;;;;;;;;3.50;99.90;;;;;;5043874;28;19925;-77
2023/03/12 01:39:21;;;;;;;;;;;3.40;99.90;;;;;;5038641;28;19921;-77
2023/03/12 01:41:49;;;;;;;;;;;3.50;99.90;;;;;;5033179;28;20228;-77
2023/03/12 01:44:15;;;;;;;;;;;3.50;99.90;;;;;;5035617;28;20298;-77
2023/03/12 01:46:44;;;;;;;;;;;3.50;99.90;;;;;;5038861;28;19979;-77
2023/03/12 01:49:17;;;;;;;;;;;3.50;99.90;;;;;;5048279;28;19932;-77
2023/03/12 01:51:46;;;;;;;;;;;3.50;99.90;;;;;;5032910;28;20460;-77
2023/03/12 01:54:15;;;;;;;;;;;3.50;99.90;;;;;;5044912;28;19920;-76
2023/03/12 01:56:42;;;;;;;;;;;3.50;99.90;;;;;;5051467;28;19925;-77
2023/03/12 01:59:12;;;;;;;;;;;3.50;99.90;;;;;;5046069;28;19971;-77
2023/03/12 02:01:39;;;;;;;;;;;3.50;99.90;;;;;;5048807;28;20397;-77
2023/03/12 02:04:06;;;;;;;;;;;3.50;99.90;;;;;;5044144;28;20043;-77
2023/03/12 02:06:38;;;;;;;;;;;3.50;99.90;;;;;;5047985;28;20004;-77
2023/03/12 02:09:06;;;;;;;;;;;3.50;99.90;;;;;;5038591;28;19924;-77
2023/03/12 02:11:33;;;;;;;;;;;3.50;99.90;;;;;;5042153;28;20345;-77
2023/03/12 02:14:00;;;;;;;;;;;3.50;99.90;;;;;;5031704;28;20500;-77
2023/03/12 02:16:27;;;;;;;;;;;3.50;99.90;;;;;;5055271;28;19933;-78
2023/03/12 02:18:54;;;;;;;;;;;3.50;99.90;;;;;;5037829;28;19920;-78
2023/03/12 02:21:22;;;;;;;;;;;3.50;99.90;;;;;;5048765;28;19960;-78
2023/03/12 02:23:55;;;;;;;;;;;3.50;99.90;;;;;;5029193;28;20286;-79
2023/03/12 02:26:24;;;;;;;;;;;3.50;99.90;;;;;;5035043;28;19951;-78
2023/03/12 02:28:51;;;;;;;;;;;3.40;99.90;;;;;;5033439;28;19924;-78
2023/03/12 02:31:20;;;;;;;;;;;3.40;99.90;;;;;;5042570;28;19924;-76
2023/03/12 02:33:47;;;;;;;;;;;3.40;99.90;;;;;;5033401;28;19929;-77
2023/03/12 02:36:14;;;;;;;;;;;3.40;99.90;;;;;;5036439;28;20286;-77
2023/03/12 02:38:42;;;;;;;;;;;3.40;99.90;;;;;;5044635;28;20566;-76
2023/03/12 02:41:13;;;;;;;;;;;3.40;99.90;;;;;;5033482;28;20558;-77
2023/03/12 02:43:42;;;;;;;;;;;2.90;99.90;;;;;;5039015;28;19931;-77
2023/03/12 02:46:09;;;;;;;;;;;3.50;99.90;;;;;;5044454;28;19925;-78
2023/03/12 02:48:36;;;;;;;;;;;3.50;99.90;;;;;;5045847;28;19920;-78
2023/03/12 02:51:03;;;;;;;;;;;3.50;99.90;;;;;;5037120;28;19925;-78
2023/03/12 02:53:30;;;;;;;;;;;3.50;99.90;;;;;;5031279;28;20189;-77
2023/03/12 02:55:56;;;;;;;;;;;3.50;99.90;;;;;;5040060;28;19925;-77
2023/03/12 02:58:23;;;;;;;;;;;4.90;99.90;;;;;;5039179;28;19979;-77
2023/03/12 03:00:51;;;;;;;;;;;3.50;99.90;;;;;;5046200;28;19921;-78
2023/03/12 03:03:18;;;;;;;;;;;3.50;99.90;;;;;;5046690;28;19971;-78
2023/03/12 03:05:45;;;;;;;;;;;3.40;99.90;;;;;;5034894;28;19920;-78
2023/03/12 03:08:12;;;;;;;;;;;3.50;99.90;;;;;;5029174;28;19932;-77
2023/03/12 03:10:39;;;;;;;;;;;3.50;99.90;;;;;;5037178;28;19921;-78
2023/03/12 03:13:05;;;;;;;;;;;3.50;99.90;;;;;;5047048;28;20003;-77
2023/03/12 03:15:32;;;;;;;;;;;3.50;99.90;;;;;;5028932;28;19932;-78
2023/03/12 03:18:02;;;;;;;;;;;3.50;99.90;;;;;;5041707;28;19994;-78
2023/03/12 03:20:29;;;;;;;;;;;3.50;99.90;;;;;;5030002;28;19925;-78
2023/03/12 03:22:56;;;;;;;;;;;3.50;99.90;;;;;;5041760;28;19924;-78
2023/03/12 03:25:23;;;;;;;;;;;3.50;99.90;;;;;;5031175;28;20023;-78
2023/03/12 03:27:50;;;;;;;;;;;3.50;99.90;;;;;;5027828;28;20345;-78
2023/03/12 03:30:17;;;;;;;;;;;3.60;99.90;;;;;;5040804;28;19924;-78
2023/03/12 03:32:46;;;;;;;;;;;3.50;99.90;;;;;;5035178;28;19925;-78
2023/03/12 03:35:15;;;;;;;;;;;3.50;99.90;;;;;;5038098;28;19935;-77
2023/03/12 03:37:42;;;;;;;;;;;3.50;99.90;;;;;;5045305;28;19931;-77
2023/03/12 03:40:10;;;;;;;;;;;3.50;99.90;;;;;;5042102;28;19929;-77
2023/03/12 03:42:38;;;;;;;;;;;3.50;99.90;;;;;;5033148;28;20047;-77
2023/03/12 03:45:06;;;;;;;;;;;3.50;99.90;;;;;;5045117;28;19925;-78
2023/03/12 03:47:33;;;;;;;;;;;3.60;99.90;;;;;;5053642;28;19925;-77
2023/03/12 03:50:00;;;;;;;;;;;3.60;99.90;;;;;;5033154;28;19929;-77
2023/03/12 03:52:28;;;;;;;;;;;3.60;99.90;;;;;;5041391;28;19928;-77
2023/03/12 03:54:55;;;;;;;;;;;3.60;99.90;;;;;;5035552;28;19925;-77
2023/03/12 03:57:22;;;;;;;;;;;3.60;99.90;;;;;;5039149;28;20026;-77
2023/03/12 03:59:49;;;;;;;;;;;3.60;99.90;;;;;;5041952;28;19927;-77
2023/03/12 04:02:17;;;;;;;;;;;3.70;99.90;;;;;;5032606;28;19924;-77
2023/03/12 04:04:44;;;;;;;;;;;3.70;99.90;;;;;;5036408;28;19952;-77
2023/03/12 04:07:10;;;;;;;;;;;3.70;99.90;;;;;;5034625;28;20266;-78
2023/03/12 04:09:39;;;;;;;;;;;3.70;99.90;;;;;;5029334;28;20020;-76
2023/03/12 04:12:06;;;;;;;;;;;3.80;99.90;;;;;;5047885;28;20034;-76
2023/03/12 04:14:38;;;;;;;;;;;3.80;99.90;;;;;;5029765;28;19921;-77
2023/03/12 04:17:05;;;;;;;;;;;3.80;99.90;;;;;;5047342;28;19956;-77
2023/03/12 04:19:32;;;;;;;;;;;3.80;99.90;;;;;;5043591;28;20339;-77
2023/03/12 04:21:59;;;;;;;;;;;3.90;99.90;;;;;;5043692;28;20409;-75
2023/03/12 04:24:25;;;;;;;;;;;3.90;99.90;;;;;;5040511;28;20389;-76
2023/03/12 04:26:53;;;;;;;;;;;3.90;99.90;;;;;;5036619;28;20550;-77
2023/03/12 04:29:20;;;;;;;;;;;3.90;99.90;;;;;;5035465;28;19929;-76
2023/03/12 04:31:47;;;;;;;;;;;4.00;99.90;;;;;;5050733;28;20001;-77
2023/03/12 04:34:14;;;;;;;;;;;4.00;99.90;;;;;;5035637;28;19924;-77
2023/03/12 04:36:40;;;;;;;;;;;6.00;99.90;;;;;;5043969;28;19928;-76
2023/03/12 04:39:08;;;;;;;;;;;4.00;99.90;;;;;;5032614;28;19924;-76
2023/03/12 04:41:35;;;;;;;;;;;4.10;99.90;;;;;;5044131;28;19933;-77
2023/03/12 04:44:08;;;;;;;;;;;4.10;99.90;;;;;;5031818;28;19925;-77
2023/03/12 04:46:36;;;;;;;;;;;4.10;99.90;;;;;;5036677;28;19936;-78
2023/03/12 04:49:03;;;;;;;;;;;4.10;99.90;;;;;;5043572;28;19939;-78
2023/03/12 04:51:31;;;;;;;;;;;4.10;99.90;;;;;;5040085;28;19926;-78
2023/03/12 04:54:00;;;;;;;;;;;4.10;99.90;;;;;;5039695;28;19935;-76
2023/03/12 04:56:27;;;;;;;;;;;4.10;99.90;;;;;;5042733;28;20011;-77
2023/03/12 04:58:53;;;;;;;;;;;4.10;99.90;;;;;;5032283;28;19925;-77
2023/03/12 05:01:25;;;;;;;;;;;4.10;99.90;;;;;;5037601;28;20353;-77
2023/03/12 05:03:54;;;;;;;;;;;4.10;99.90;;;;;;5037135;28;20290;-79
2023/03/12 05:06:21;;;;;;;;;;;4.10;99.90;;;;;;5040297;28;20381;-77
2023/03/12 05:08:48;;;;;;;;;;;4.10;99.90;;;;;;5046975;28;19960;-77
2023/03/12 05:11:15;;;;;;;;;;;4.10;99.90;;;;;;5039883;28;19924;-77
2023/03/12 05:13:42;;;;;;;;;;;4.10;99.90;;;;;;5035084;28;20247;-77
2023/03/12 05:16:09;;;;;;;;;;;4.20;99.90;;;;;;5049005;28;19931;-77
2023/03/12 05:18:40;;;;;;;;;;;4.20;99.90;;;;;;5038541;28;19962;-76
2023/03/12 05:21:08;;;;;;;;;;;4.20;99.90;;;;;;5050157;28;19932;-77
2023/03/12 05:23:38;;;;;;;;;;;4.20;99.90;;;;;;5038719;28;20401;-77
2023/03/12 05:26:04;;;;;;;;;;;4.20;99.90;;;;;;5029721;28;19925;-77
2023/03/12 05:28:31;;;;;;;;;;;4.20;99.90;;;;;;5047841;28;19932;-77
2023/03/12 05:31:01;;;;;;;;;;;4.20;99.90;;;;;;5040776;28;19925;-76
2023/03/12 05:33:35;;;;;;;;;;;4.20;99.90;;;;;;5034161;28;20301;-76
2023/03/12 05:36:07;;;;;;;;;;;4.20;99.90;;;;;;5030254;28;19931;-77
2023/03/12 05:38:34;;;;;;;;;;;4.10;99.90;;;;;;5028822;28;19975;-77
2023/03/12 05:41:02;;;;;;;;;;;4.10;99.90;;;;;;5047068;28;20018;-77
2023/03/12 05:43:31;;;;;;;;;;;4.10;99.90;;;;;;5044927;28;19929;-77
2023/03/12 05:45:58;;;;;;;;;;;4.10;99.90;;;;;;5030243;28;19924;-77
2023/03/12 05:48:28;;;;;;;;;;;4.10;99.90;;;;;;5028020;28;19925;-77
2023/03/12 05:50:56;;;;;;;;;;;4.10;99.90;;;;;;5044526;28;20016;-77
2023/03/12 05:53:24;;;;;;;;;;;5.00;99.90;;;;;;5043455;28;20405;-78
2023/03/12 05:55:50;;;;;;;;;;;4.10;99.90;;;;;;5031984;28;20042;-78
2023/03/12 05:58:17;;;;;;;;;;;4.10;99.90;;;;;;5046090;28;19924;-78
2023/03/12 06:00:44;;;;;;;;;;;4.10;99.90;;;;;;5037970;28;19925;-78
2023/03/12 06:03:26;;;;;;;;;;;4.10;99.90;;;;;;5040419;28;19925;-77
2023/03/12 06:05:55;;;;;;;;;;;4.10;99.90;;;;;;5032852;28;19921;-77
2023/03/12 06:08:24;;;;;;;;;;;4.10;99.90;;;;;;5048325;28;19952;-78
2023/03/12 06:10:52;;;;;;;;;;;4.00;99.90;;;;;;5042146;28;19925;-78
2023/03/12 06:13:19;;;;;;;;;;;4.00;99.90;;;;;;5038628;28;20401;-77
2023/03/12 06:15:46;;;;;;;;;;;4.10;99.90;;;;;;5042321;28;19970;-77
2023/03/12 06:18:13;;;;;;;;;;;4.10;99.90;;;;;;5046267;28;19956;-81
2023/03/12 06:20:40;;;;;;;;;;;4.10;99.90;;;;;;5036937;28;19933;-77
2023/03/12 06:23:07;;;;;;;;;;;4.10;99.90;;;;;;5028529;28;20000;-76
2023/03/12 06:25:35;;;;;;;;;;;4.10;99.90;;;;;;5033119;28;20006;-77
2023/03/12 06:28:03;;;;;;;;;;;4.20;99.90;;;;;;5038506;28;19924;-77
2023/03/12 06:30:30;;;;;;;;;;;4.20;99.90;;;;;;5033848;28;19931;-77
2023/03/12 06:32:57;;;;;;;;;;;4.20;99.90;;;;;;5037551;28;19975;-77
2023/03/12 06:35:24;;;;;;;;;;;4.20;99.90;;;;;;5038449;28;19942;-77
2023/03/12 06:37:52;;;;;;;;;;;4.20;99.90;;;;;;5043383;28;19986;-76
2023/03/12 06:40:18;;;;;;;;;;;4.10;99.90;;;;;;5035712;28;19924;-77
2023/03/12 06:42:47;;;;;;;;;;;4.20;99.90;;;;;;5037956;28;19933;-77
2023/03/12 06:45:14;;;;;;;;;;;4.30;99.90;;;;;;5033562;28;19927;-77
2023/03/12 06:47:41;;;;;;;;;;;4.20;99.90;;;;;;5045955;28;19983;-77
2023/03/12 06:50:08;;;;;;;;;;;4.20;99.90;;;;;;5036802;28;20306;-77
2023/03/12 06:52:35;;;;;;;;;;;4.20;99.90;;;;;;5031115;28;19932;-77
2023/03/12 06:55:01;;;;;;;;;;;4.20;99.90;;;;;;5035440;28;20027;-76
2023/03/12 06:57:28;;;;;;;;;;;4.20;99.90;;;;;;5041230;28;19920;-77
2023/03/12 06:59:56;;;;;;;;;;;4.10;99.90;;;;;;5033053;28;19924;-77
2023/03/12 07:02:23;;;;;;;;;;;4.10;99.90;;;;;;5041542;28;19924;-77
2023/03/12 07:04:49;;;;;;;;;;;4.10;99.90;;;;;;5036995;28;19924;-77
2023/03/12 07:07:17;;;;;;;;;;;4.20;99.90;;;;;;5033933;28;19935;-77
2023/03/12 07:09:43;;;;;;;;;;;4.20;99.90;;;;;;5030698;28;19925;-78
2023/03/12 07:12:10;;;;;;;;;;;4.20;99.90;;;;;;5030537;28;19991;-77
2023/03/12 07:14:37;;;;;;;;;;;4.30;99.90;;;;;;5039139;28;19927;-77
2023/03/12 07:17:05;;;;;;;;;;;4.30;99.90;;;;;;5029418;28;20024;-78
2023/03/12 07:19:32;;;;;;;;;;;4.40;99.90;;;;;;5042119;28;19991;-79
2023/03/12 07:21:58;;;;;;;;;;;4.50;99.90;;;;;;5032228;28;19921;-79
2023/03/12 07:24:25;;;;;;;;;;;4.50;99.90;;;;;;5033972;28;19947;-78
2023/03/12 07:26:52;;;;;;;;;;;4.60;99.90;;;;;;5029543;28;19955;-79
2023/03/12 07:29:19;;;;;;;;;;;4.60;99.90;;;;;;5028205;28;19921;-79
2023/03/12 07:31:45;;;;;;;;;;;4.60;99.90;;;;;;5039139;28;19951;-79
2023/03/12 07:34:13;;;;;;;;;;;4.70;99.90;;;;;;5029530;28;19924;-78
2023/03/12 07:36:40;;;;;;;;;;;4.60;99.90;;;;;;5038853;28;19932;-79
2023/03/12 07:39:07;;;;;;;;;;;4.70;99.90;;;;;;5034871;28;19924;-80
2023/03/12 07:41:36;;;;;;;;;;;4.70;99.90;;;;;;5032182;28;19979;-80
2023/03/12 07:44:02;;;;;;;;;;;4.70;99.90;;;;;;5038624;28;19929;-79
2023/03/12 07:46:29;;;;;;;;;;;4.70;99.90;;;;;;5034185;28;20476;-80
2023/03/12 07:48:56;;;;;;;;;;;4.70;99.90;;;;;;5036529;28;20400;-80
2023/03/12 07:51:24;;;;;;;;;;;4.70;99.90;;;;;;5042074;28;19947;-80
2023/03/12 07:53:51;;;;;;;;;;;4.80;99.90;;;;;;5538899;22;19925;-80
2023/03/12 07:56:18;;;;;;;;;;;4.80;99.90;;;;;;5025311;28;19921;-79
2023/03/12 07:58:45;;;;;;;;;;;4.70;99.90;;;;;;5025211;28;19939;-81
2023/03/12 08:01:11;;;;;;;;;;;4.80;99.90;;;;;;5047385;28;19929;-79
2023/03/12 08:03:38;;;;;;;;;;;4.90;99.90;;;;;;5021782;28;19925;-81
2023/03/12 08:06:05;;;;;;;;;;;5.00;99.90;;;;;;5036723;28;19925;-78
2023/03/12 08:08:34;;;;;;;;;;;5.10;99.90;;;;;;5029475;28;19921;-77
2023/03/12 08:11:03;;;;;;;;;;;5.20;99.90;;;;;;5011798;28;20441;-78
2023/03/12 08:13:30;;;;;;;;;;;5.20;99.90;;;;;;5027470;28;20248;-78
2023/03/12 08:15:57;;;;;;;;;;;5.30;99.90;;;;;;5017297;28;19933;-78
2023/03/12 08:18:24;;;;;;;;;;;5.30;99.90;;;;;;5018018;28;20341;-77
2023/03/12 08:20:51;;;;;;;;;;;5.30;99.90;;;;;;5015446;28;19928;-78
2023/03/12 08:23:18;;;;;;;;;;;5.30;99.90;;;;;;5003284;28;20547;-77
2023/03/12 08:25:46;;;;;;;;;;;5.30;99.90;;;;;;4992374;28;19926;-78
2023/03/12 08:28:13;;;;;;;;;;;6.80;99.90;;;;;;5005452;28;20016;-78
2023/03/12 08:30:44;;;;;;;;;;;5.50;99.90;;;;;;5002344;28;19928;-78
2023/03/12 08:33:11;;;;;;;;;;;6.60;99.90;;;;;;5020667;28;19930;-78
2023/03/12 08:35:38;;;;;;;;;;;5.60;99.90;;;;;;5003718;28;19921;-78
2023/03/12 08:38:05;;;;;;;;;;;5.70;99.90;;;;;;5010828;28;20521;-77
2023/03/12 08:40:32;;;;;;;;;;;5.90;99.90;;;;;;5016182;28;19922;-78
2023/03/12 08:43:00;;;;;;;;;;;7.00;99.90;;;;;;5015781;28;19929;-77
2023/03/12 08:45:27;;;;;;;;;;;5.90;99.90;;;;;;5015035;28;20012;-78
2023/03/12 08:47:54;;;;;;;;;;;6.00;99.90;;;;;;5014922;28;20099;-78
2023/03/12 08:50:21;;;;;;;;;;;6.10;99.90;;;;;;5018280;28;19937;-78
2023/03/12 08:52:48;;;;;;;;;;;6.20;99.90;;;;;;5018389;28;19943;-78
2023/03/12 08:55:15;;;;;;;;;;;6.20;99.90;;;;;;5026712;28;19928;-77
2023/03/12 08:57:42;;;;;;;;;;;6.10;99.90;;;;;;5020622;28;19929;-76
2023/03/12 09:00:14;;;;;;;;;;;6.10;99.90;;;;;;5014169;28;20016;-76
2023/03/12 09:02:42;;;;;;;;;;;6.20;99.90;;;;;;5004014;28;19955;-76
2023/03/12 09:05:10;;;;;;;;;;;6.10;99.90;;;;;;5003145;28;19929;-77
2023/03/12 09:07:37;;;;;;;;;;;6.00;99.90;;;;;;5001242;28;19925;-76
2023/03/12 09:10:04;;;;;;;;;;;6.00;99.90;;;;;;5002493;28;20590;-77
2023/03/12 09:12:31;;;;;;;;;;;5.90;99.90;;;;;;5022285;28;19925;-76
2023/03/12 09:14:57;;;;;;;;;;;5.90;99.90;;;;;;5020209;28;19978;-77
2023/03/12 09:17:25;;;;;;;;;;;6.50;99.90;;;;;;5008186;28;19940;-78
2023/03/12 09:19:52;;;;;;;;;;;5.70;99.90;;;;;;5024294;28;19928;-78
2023/03/12 09:22:19;;;;;;;;;;;5.70;99.90;;;;;;5042128;28;19928;-78
2023/03/12 09:24:45;;;;;;;;;;;5.70;99.90;;;;;;5025496;28;20271;-76
2023/03/12 09:27:12;;;;;;;;;;;5.80;99.90;;;;;;5020800;28;20604;-77
2023/03/12 09:29:40;;;;;;;;;;;5.90;99.90;;;;;;5027025;28;19921;-77
2023/03/12 09:34:50;;;;;;;;;;;5.90;99.90;;;;;;5097977;23;20294;-78
2023/03/12 09:37:17;;;;;;;;;;;5.90;99.90;;;;;;4994157;28;20322;-77
2023/03/12 09:39:44;;;;;;;;;;;5.90;99.90;;;;;;4993097;28;19999;-78
2023/03/12 09:44:53;;;;;;;;;;;5.70;99.90;;;;;;5027631;23;19971;-78
2023/03/12 09:47:20;;;;;;;;;;;;;;;;;;5031771;28;19933;-77
2023/03/12 09:49:49;;;;;;;;;;;5.60;99.90;;;;;;5025659;28;19928;-78
2023/03/12 09:52:20;;;;;;;;;;;5.60;99.90;;;;;;5014715;28;19979;-78
2023/03/12 09:54:52;;;;;;;;;;;5.60;99.90;;;;;;5005532;28;20414;-78
2023/03/12 09:57:21;;;;;;;;;;;5.60;99.90;;;;;;4993506;28;19929;-76
2023/03/12 09:59:48;;;;;;;;;;;5.60;99.90;;;;;;4993542;28;19936;-78
2023/03/12 10:04:58;;;;;;;;;;;5.60;99.90;;;;;;5034721;23;20598;-78
2023/03/12 10:07:32;;;;;;;;;;;5.70;99.90;;;;;;5006608;28;19929;-78
2023/03/12 10:10:06;;;;;;;;;;;6.50;99.90;;;;;;5008756;28;19929;-78
2023/03/12 10:12:39;;;;;;;;;;;6.00;99.90;;;;;;5023422;28;19929;-78
2023/03/12 10:15:14;;;;;;;;;;;6.00;99.90;;;;;;4991051;28;20335;-77
2023/03/12 10:17:46;;;;;;;;;;;6.10;99.90;;;;;;4989723;28;19925;-79
2023/03/12 10:20:27;;;;;;;;;;;6.20;99.90;;;;;;4987863;28;19936;-79
2023/03/12 10:22:59;;;;;;;;;;;6.20;99.90;;;;;;4984376;28;19929;-78
2023/03/12 10:25:28;;;;;;;;;;;6.20;99.90;;;;;;4988631;28;19936;-78
2023/03/12 10:27:59;;;;;;;;;;;6.20;99.90;;;;;;5012153;28;19922;-80
2023/03/12 10:30:28;;;;;;;;;;;6.30;99.90;;;;;;5001822;28;19926;-80
2023/03/12 10:32:56;;;;;;;;;;;6.30;99.90;;;;;;5004129;28;19933;-80
2023/03/12 10:35:24;;;;;;;;;;;6.30;99.90;;;;;;5034589;28;20007;-79
2023/03/12 10:37:51;;;;;;;;;;;6.40;99.90;;;;;;5028073;28;19980;-79
2023/03/12 10:40:20;;;;;;;;;;;6.50;99.90;;;;;;5025216;28;21561;-79
2023/03/12 10:42:47;;;;;;;;;;;6.50;99.90;;;;;;4994422;28;19988;-79
2023/03/12 10:45:20;;;;;;;;;;;6.60;99.90;;;;;;4995943;28;19960;-80
2023/03/12 10:47:51;;;;;;;;;;;6.80;99.90;;;;;;4998933;28;20264;-80
2023/03/12 10:50:19;;;;;;;;;;;6.70;99.90;;;;;;4999789;28;19921;-80
2023/03/12 10:52:46;;;;;;;;;;;6.80;99.90;;;;;;5497738;23;19979;-81
2023/03/12 10:55:19;;;;;;;;;;;6.90;99.90;;;;;;5020973;28;19932;-80
2023/03/12 10:57:47;;;;;;;;;;;6.90;99.90;;;;;;5011252;28;19920;-81
2023/03/12 11:00:18;;;;;;;;;;;6.90;99.90;;;;;;5030438;28;19920;-80
2023/03/12 11:02:45;;;;;;;;;;;7.00;99.90;;;;;;5029422;28;19940;-80
2023/03/12 11:05:20;;;;;;;;;;;7.00;99.90;;;;;;5027269;28;20412;-79
2023/03/12 11:07:46;;;;;;;;;;;7.40;99.90;;;;;;5029179;28;19920;-78
2023/03/12 11:10:18;;;;;;;;;;;7.20;99.90;;;;;;5013327;28;20022;-78
2023/03/12 11:12:54;;;;;;;;;;;7.30;99.90;;;;;;5020150;28;19929;-78
2023/03/12 11:15:22;;;;;;;;;;;7.30;99.90;;;;;;5020809;28;19932;-76
2023/03/12 11:17:49;;;;;;;;;;;7.40;99.90;;;;;;5032997;28;20002;-77
2023/03/12 11:20:25;;;;;;;;;;;7.50;99.90;;;;;;5029684;28;19936;-76
2023/03/12 11:22:51;;;;;;;;;;;7.70;99.90;;;;;;5009783;28;20350;-77
2023/03/12 11:25:23;;;;;;;;;;;7.90;99.90;;;;;;5025040;28;19936;-76
2023/03/12 11:27:52;;;;;;;;;;;8.00;99.90;;;;;;5029465;28;19929;-76
2023/03/12 11:30:22;;;;;;;;;;;8.00;99.90;;;;;;5025698;28;19928;-77
2023/03/12 11:32:50;;;;;;;;;;;8.20;99.90;;;;;;5015196;28;19928;-76
2023/03/12 11:35:19;;;;;;;;;;;8.20;99.90;;;;;;5015693;28;19932;-77
2023/03/12 11:37:53;;;;;;;;;;;8.40;99.90;;;;;;5032327;28;19929;-76
2023/03/12 11:40:29;;;;;;;;;;;8.50;99.90;;;;;;5034246;28;19960;-77
2023/03/12 11:43:17;;;;;;;;;;;8.70;99.90;;;;;;5030026;28;19932;-76
2023/03/12 11:45:51;;;;;;;;;;;8.90;99.90;;;;;;5028531;28;19937;-76
2023/03/12 11:48:23;;;;;;;;;;;9.00;99.90;;;;;;5028805;28;19924;-76
2023/03/12 11:50:59;;;;;;;;;;;9.10;99.90;;;;;;5033980;28;20067;-76
2023/03/12 11:53:30;;;;;;;;;;;9.40;99.90;;;;;;5012158;28;20282;-76
2023/03/12 11:56:02;;;;;;;;;;;9.50;99.90;;;;;;5023726;28;20342;-76
2023/03/12 11:58:42;;;;;;;;;;;9.60;99.90;;;;;;5022479;28;20408;-77
2023/03/12 12:01:12;;;;;;;;;;;9.80;99.90;;;;;;5035640;28;19928;-77
2023/03/12 12:03:57;;;;;;;;;;;9.80;99.90;;;;;;5035839;28;19932;-77
2023/03/12 12:06:30;;;;;;;;;;;9.90;99.90;;;;;;5038372;28;19925;-76
2023/03/12 12:09:02;;;;;;;;;;;9.90;99.90;;;;;;5016552;28;20351;-77
2023/03/12 12:11:34;;;;;;;;;;;9.70;99.90;;;;;;5016365;28;19921;-76
2023/03/12 12:14:06;;;;;;;;;;;9.70;99.90;;;;;;5011066;28;20024;-77
2023/03/12 12:16:48;;;;;;;;;;;9.70;99.90;;;;;;5040511;28;19952;-77
2023/03/12 12:19:20;;;;;;;;;;;9.60;99.90;;;;;;5028926;28;19929;-76
2023/03/12 12:21:53;;;;;;;;;;;9.50;99.90;;;;;;5031143;28;20419;-76
2023/03/12 12:24:29;;;;;;;;;;;9.50;99.90;;;;;;5019210;28;20019;-78
2023/03/12 12:26:59;;;;;;;;;;;9.50;99.90;;;;;;5034947;28;20385;-76
2023/03/12 12:29:31;;;;;;;;;;;9.50;99.90;;;;;;5010083;28;20014;-76
2023/03/12 12:32:01;;;;;;;;;;;9.50;99.90;;;;;;5026205;28;19928;-76
2023/03/12 12:34:38;;;;;;;;;;;9.50;99.90;;;;;;5035757;28;19928;-77
2023/03/12 12:37:19;;;;;;;;;;;9.50;99.90;;;;;;5042505;28;19925;-77
2023/03/12 12:39:48;;;;;;;;;;;9.60;99.90;;;;;;5028513;28;19936;-77
2023/03/12 12:42:18;;;;;;;;;;;9.70;99.90;;;;;;5034573;28;19925;-77
2023/03/12 12:44:48;;;;;;;;;;;9.70;99.90;;;;;;5040523;28;19986;-77
2023/03/12 12:47:17;;;;;;;;;;;9.90;99.90;;;;;;5023865;28;19927;-77
2023/03/12 12:49:46;;;;;;;;;;;10.00;99.90;;;;;;5032720;28;19921;-77
2023/03/12 12:52:13;;;;;;;;;;;10.40;99.90;;;;;;5036558;28;19929;-77
2023/03/12 12:54:45;;;;;;;;;;;10.60;99.90;;;;;;5050813;28;19939;-77
2023/03/12 12:57:15;;;;;;;;;;;10.90;99.90;;;;;;5037273;28;19920;-76
2023/03/12 12:59:49;;;;;;;;;;;11.30;99.90;;;;;;5037569;28;19933;-78
2023/03/12 13:02:19;;;;;;;;;;;11.60;99.90;;;;;;5030796;28;19975;-77
2023/03/12 13:04:47;;;;;;;;;;;12.00;99.90;;;;;;5023136;28;19920;-78
2023/03/12 13:07:30;;;;;;;;;;;12.30;99.90;;;;;;5039996;28;19925;-78
2023/03/12 13:09:58;;;;;;;;;;;12.60;99.90;;;;;;5033150;28;20366;-78
2023/03/12 13:12:27;;;;;;;;;;;12.90;99.90;;;;;;5034981;28;19925;-78
2023/03/12 13:14:55;;;;;;;;;;;13.10;99.90;;;;;;5039467;28;19925;-78
2023/03/12 13:17:24;;;;;;;;;;;13.30;99.90;;;;;;5036667;28;19956;-78
2023/03/12 13:19:53;;;;;;;;;;;13.50;99.90;;;;;;5036214;28;20411;-78
2023/03/12 13:22:24;;;;;;;;;;;13.50;99.90;;;;;;5038223;28;19935;-78
2023/03/12 13:24:54;;;;;;;;;;;13.50;99.90;;;;;;5038607;28;19921;-77
2023/03/12 13:27:23;;;;;;;;;;;13.50;99.90;;;;;;5025145;28;19929;-76
2023/03/12 13:29:55;;;;;;;;;;;13.50;99.90;;;;;;5039248;28;19929;-77
2023/03/12 13:32:41;;;;;;;;;;;13.40;99.90;;;;;;5033818;28;19920;-77
2023/03/12 13:35:28;;;;;;;;;;;13.30;99.90;;;;;;5035803;28;20265;-77
2023/03/12 13:38:02;;;;;;;;;;;13.20;99.90;;;;;;5039028;28;19930;-76
2023/03/12 13:40:36;;;;;;;;;;;13.10;99.90;;;;;;5030540;28;20359;-77
2023/03/12 13:43:08;;;;;;;;;;;13.10;99.90;;;;;;5048753;28;19921;-77
2023/03/12 13:45:40;;;;;;;;;;;13.20;99.90;;;;;;5053937;28;19928;-76
2023/03/12 13:48:14;;;;;;;;;;;13.30;99.90;;;;;;5049646;28;20015;-76
2023/03/12 13:50:50;;;;;;;;;;;13.40;99.90;;;;;;5042583;28;19925;-77
2023/03/12 13:53:21;;;;;;;;;;;13.50;99.90;;;;;;5040203;28;20348;-77
2023/03/12 13:55:51;;;;;;;;;;;13.60;99.90;;;;;;5038145;28;19947;-77
2023/03/12 13:58:20;;;;;;;;;;;13.70;99.90;;;;;;5036946;28;20240;-77
2023/03/12 14:00:54;;;;;;;;;;;15.00;99.90;;;;;;5035993;28;20290;-77
2023/03/12 14:03:23;;;;;;;;;;;13.80;99.90;;;;;;5020684;28;20130;-77
2023/03/12 14:05:53;;;;;;;;;;;13.90;99.90;;;;;;5032407;28;19925;-77
2023/03/12 14:08:27;;;;;;;;;;;14.70;99.90;;;;;;5036866;28;19925;-77
2023/03/12 14:11:03;;;;;;;;;;;14.10;99.90;;;;;;5024330;28;19931;-77
2023/03/12 14:13:36;;;;;;;;;;;14.10;99.90;;;;;;5023164;28;20303;-77
2023/03/12 14:16:05;;;;;;;;;;;14.10;99.90;;;;;;5040086;28;20410;-77
2023/03/12 14:18:34;;;;;;;;;;;14.10;99.90;;;;;;5026384;28;19969;-77
2023/03/12 14:21:06;;;;;;;;;;;14.10;99.90;;;;;;5031070;28;19925;-77
2023/03/12 14:23:35;;;;;;;;;;;14.10;99.90;;;;;;5038142;28;20281;-76
2023/03/12 14:26:05;;;;;;;;;;;14.20;99.90;;;;;;5030538;28;20381;-76
2023/03/12 14:28:37;;;;;;;;;;;14.20;99.90;;;;;;5020943;28;20013;-78
2023/03/12 14:31:06;;;;;;;;;;;14.10;99.90;;;;;;5042576;28;19932;-77
2023/03/12 14:33:35;;;;;;;;;;;14.10;99.90;;;;;;5019182;28;19925;-78
2023/03/12 14:36:06;;;;;;;;;;;14.00;99.90;;;;;;5024865;28;19929;-78
2023/03/12 14:38:34;;;;;;;;;;;13.90;99.90;;;;;;5020007;28;19925;-75
2023/03/12 14:41:02;;;;;;;;;;;13.90;99.90;;;;;;5031989;28;19925;-76
2023/03/12 14:43:29;;;;;;;;;;;14.00;99.90;;;;;;5039183;28;19931;-77
2023/03/12 14:45:57;;;;;;;;;;;14.00;99.90;;;;;;5041397;28;19925;-77